»·PEaware :: N6870P KDRO-KASE

N6870P :: KDRO-KASE

FLIGHT INFORMATION

Flight Status: Arrived
Operator: Privately registered:
United States
More flights under this callsign
Pilot: Larry J. (31147)
Aircraft: PIPER PA-24 COMMANCHE
(PA24)
More flights by this aircraft type
Origin: KDRO Durango-La Plata Co
United States
Destination: KASE Aspen-Pitkin Co/Sardy
United States
More flights between these airports :: More routes between these airports
Route:
File this flight plan on PilotEdge
Remarks:
Altitude:
(Current/Filed)
11,500ft
Speed:
(Current/Filed)
180kts
Departed: 13-May-21 08:47 AM
Arrived: 13-May-21 09:39 AM
Distance/Time
Traveled:
131nm/0:52
Distance/Time
To Go:
Arrived

Flight Plot

Page will automatically refresh every two minutes.

Flight plan parsing failed; only flown route is shown


Map Options




Map Legend


Flown Route
Filed Route
Departure Airport
Arrival Airport
Navaid (VOR, NDB)
Fix

Horizontal Profiles

Position Reports

Time Latitude Longitude Heading Altitude Ground
Speed
13-May-21 08:40 37.156420 -107.751690 207 6687ft 0kts
13-May-21 08:41 37.156420 -107.751690 207 6687ft 0kts
13-May-21 08:42 37.155960 -107.751124 122 6687ft 0kts
13-May-21 08:43 37.155954 -107.751113 121 6687ft 0kts
13-May-21 08:44 37.155953 -107.751111 117 6687ft 0kts
13-May-21 08:45 37.155952 -107.751109 121 6687ft 0kts
13-May-21 08:46 37.147917 -107.757000 214 6942ft 79kts
13-May-21 08:47 37.139307 -107.781472 292 8007ft 81kts
13-May-21 08:48 37.153487 -107.805317 316 9037ft 81kts
13-May-21 08:49 37.167446 -107.822459 312 10164ft 60kts
13-May-21 08:50 37.182001 -107.840299 312 11137ft 80kts
13-May-21 08:51 37.198750 -107.869382 297 11553ft 142kts
13-May-21 08:52 37.220713 -107.918067 296 11560ft 169kts
13-May-21 08:53 37.243957 -107.971086 298 11587ft 171kts
13-May-21 08:54 37.267458 -108.024159 295 11571ft 173kts
13-May-21 08:55 37.289301 -108.079210 297 11493ft 177kts
13-May-21 08:56 37.313205 -108.132389 297 11529ft 175kts
13-May-21 08:57 37.336294 -108.186575 304 11498ft 176kts
13-May-21 08:58 37.360726 -108.239580 298 11514ft 177kts
13-May-21 08:59 37.385721 -108.293042 298 11512ft 178kts
13-May-21 09:00 37.411725 -108.345997 300 11512ft 178kts
13-May-21 09:01 37.438331 -108.398465 300 11512ft 178kts
13-May-21 09:02 37.469561 -108.444711 348 11515ft 184kts
13-May-21 09:03 37.520732 -108.451078 352 11520ft 185kts
13-May-21 09:04 37.571981 -108.457222 352 11523ft 185kts
13-May-21 09:05 37.673630 -108.469363 352 11519ft 185kts
13-May-21 09:06 37.776479 -108.481615 352 11516ft 185kts
13-May-21 09:07 37.878722 -108.493839 352 11596ft 184kts
13-May-21 09:08 37.980899 -108.506144 352 11636ft 185kts
13-May-21 09:09 38.083818 -108.518521 352 11629ft 186kts
13-May-21 09:10 38.187028 -108.519309 0 11624ft 186kts
13-May-21 09:11 38.290832 -108.513613 0 11597ft 187kts
13-May-21 09:12 38.394904 -108.507638 0 11513ft 186kts
13-May-21 09:13 38.497578 -108.500799 0 11496ft 183kts
13-May-21 09:14 38.599183 -108.493966 0 11490ft 183kts
13-May-21 09:15 38.679725 -108.435504 69 11473ft 189kts
13-May-21 09:16 38.735518 -108.322690 60 11483ft 190kts
13-May-21 09:18 38.784357 -108.210126 60 12544ft 171kts
13-May-21 09:19 38.829699 -108.104793 60 13497ft 175kts
13-May-21 09:20 38.872542 -107.987031 74 13494ft 188kts
13-May-21 09:21 38.899596 -107.855581 74 13492ft 191kts
13-May-21 09:22 38.926293 -107.723267 74 13493ft 192kts
13-May-21 09:23 38.952823 -107.590497 68 13491ft 192kts
13-May-21 09:24 39.032121 -107.505207 33 13503ft 186kts
13-May-21 09:25 39.113296 -107.423705 33 13515ft 185kts
13-May-21 09:26 39.194491 -107.342086 34 13526ft 185kts
13-May-21 09:27 39.271301 -107.252758 36 13499ft 186kts
13-May-21 09:28 39.355645 -107.180843 23 13475ft 183kts
13-May-21 09:29 39.436195 -107.098588 34 13520ft 185kts
13-May-21 09:30 39.488702 -107.039085 64 13519ft 191kts
13-May-21 09:31 39.465924 -106.985033 165 13528ft 187kts
13-May-21 09:32 39.417102 -106.961603 162 13522ft 187kts
13-May-21 09:33 39.366263 -106.937201 162 12928ft 201kts
13-May-21 09:34 39.328657 -106.919321 165 11746ft 108kts
13-May-21 09:35 39.307207 -106.908306 161 11172ft 77kts
13-May-21 09:36 39.284249 -106.896891 163 9654ft 109kts
13-May-21 09:37 39.258904 -106.886282 157 8421ft 80kts
13-May-21 09:38 39.238441 -106.876273 158 8029ft 79kts
13-May-21 09:39 39.228700 -106.869775 158 7839ft 6kts
13-May-21 09:40 39.228463 -106.869008 247 7839ft 0kts
13-May-21 09:41 39.228463 -106.869008 247 7839ft 0kts
13-May-21 09:42 39.228463 -106.869008 247 7839ft 0kts
13-May-21 09:42 39.228463 -106.869008 247 7839ft 0kts
13-May-21 09:43 39.228463 -106.869008 247 7839ft 0kts
13-May-21 09:45 39.228463 -106.869008 247 7839ft 0kts
13-May-21 09:46 39.228463 -106.869008 247 7839ft 0kts
13-May-21 09:46 39.228463 -106.869008 247 7839ft 0kts
13-May-21 09:47 39.228463 -106.869008 247 7839ft 0kts
13-May-21 09:48 39.228463 -106.869008 247 7839ft 0kts
13-May-21 09:49 39.228463 -106.869008 247 7839ft 0kts
13-May-21 09:50 39.228463 -106.869008 247 7839ft 0kts
13-May-21 09:51 39.228463 -106.869008 247 7839ft 0kts
13-May-21 09:52 39.228463 -106.869008 247 7839ft 0kts

Navigation Log

Ident Type
Flight plan parsing failed, navigation log unavailable